首页
METAR-TAF:

METAR-TAF

机场 :

麥克默里堡國際機場

Fort McMurray, 艾伯塔, 加拿大

纬度: 56-39N, 经度: 111-13W, 海拔: 369米

当前天气观测

该预报发布于15分钟前的20:00 UTC
风速6节,风向西南
温度 -6°C
湿度 58%
气压 1018 hPa
能見度: 14.5公里
天空无云

METAR: CYMM 192000Z AUTO 22006KT 9SM CLR M06/M13 A3007 RMK SLP219

时间: 13:15 (20:15 UTC)

预报

该预报发布于1小时和37分钟前的18:38 UTC
预报有效从19日的 19点(UTC)到 20日的 07点(UTC)
风速8节,风向西转西南
能見度: 10公里
少量云层高于15000英尺
多云层高于24000英尺
成为
从 19日的 19点(UTC)到 19日的 21点(UTC)
风速12节,风向西转西南
从 20日的 0000点(UTC)
风速8节,风向西转西南
能見度: 10公里
散云层高于24000英尺

TAF: CYMM 191838Z 1919/2007 24008KT P6SM FEW150 BKN240 BECMG 1919/1921 24012KT FM200000 24008KT P6SM SCT240 RMK FCST BASED ON AUTO OBS. NXT FCST BY 200100Z

超过4000个机场的气象观测和天气预报(METAR&TAF报告)。

可查询的气象台以黄色和红色小点在地图上表示。

将鼠标移到小点上方,可查看气象台名称。

然后点击查看天气观测和预报。

如需切换地图:点击带黑十字的绿色按钮放大地图;点击带横线的绿色按钮缩小地图;或者点击绿色箭头查看邻近地区的地图。


METAR-TAF: